Pagina principale
METAR-TAF:

METAR-TAF

Aeroporti :

Aeroporto Internazionale di Gedda-Re Abd al-Aziz

Gedda, Arabia Saudita

latitudine: 21-42N, longitudine: 039-11E, altezza: 15 m

Osservazione

Il bollettino è stato emesso 50 minuti fa, alle 18:00 UTC
Vento 11 kt da nord
Temperature 34°C
Umidità 39%
Pressione 1002 hPa
Visibilità 10 km o più
nessuna nube inferiore a 1500 m e nessun cumulonembo

METAR: OEJN 251800Z 01011KT CAVOK 34/18 Q1002 NOSIG

Ora: 21:50 (18:50 UTC)

Previsione

Il bollettino è stato emesso 1 ora e 50 minuti fa, alle 17:00 UTC
Previsione valida dal 25 alle 18 UTC al 26 alle 24 UTC
Vento 10 kt da nord
Visibilità: 6000 m
Evoluzione graduale
dal 26 alle 06 UTC al 26 alle 08 UTC
Vento 10 kt da ovest/nord-ovest con raffiche fino a 20 kt

TAF: OEJN 251700Z 2518/2624 36010KT 6000 NSC BECMG 2606/2608 30010G20KT

Osservazioni e previsioni meteorologiche di più di 4000 aeroporti (messaggi METAR e TAF).

Le stazioni disponibili sono rappresentate dai dischi gialli e rossi sulla carta.

Puntare il mouse per vedere il nome della stazione.

Clicca sopra per visualizzare le osservazioni e previsioni meteorologiche.

Per cambiare la mappa : fare clic sui pulsanti verdi con una croce nera per ingrandire, il pulsante verde con un trattino per diminuire, o sulla freccia verde per le mappe adiacenti.


METAR-TAF: